• Join FlightAware (Why Join?)
  • Login
  • US Flag 
03:47PM EDT


 

Airport Tracker/Info


-or-


 

Live Flight TrackerFlight Track Log ✈ N544PS ✈ 23-Apr-2013 ✈ KYIP - KRAP

Flight Track Log - Related Links

Times and Time Zones

All times are in EDT time to prevent confusion due to time zone crossing. See the N544PS flight status page for this flight to view local times or setup timezone preferences in your user account.

Time Position Orientation Groundspeed Altitude Reporting Facility
EDT Latitude Longitude Course Direction KTS MPH feet Rate Location/Type
01:07PM 42.2239 -83.5442 226° Southwest 174 200 1,500  Level Cleveland Center
01:08PM 42.2025 -83.5742 226° Southwest 201 231 2,800 2,820 Climbing Cleveland Center
01:09PM 42.2147 -83.6561 281° West 241 277 5,800 2,580 Climbing Cleveland Center
01:10PM 42.2344 -83.7047 299° West 252 290 7,000 2,220 Climbing Cleveland Center
01:10PM 42.2481 -83.7389 298° West 261 300 8,100 2,580 Climbing Cleveland Center
01:11PM 42.2694 -83.7933 298° West 262 302 9,600 2,700 Climbing Cleveland Center
01:11PM 42.2831 -83.8250 300° West 264 304 10,900 2,400 Climbing Cleveland Center
01:12PM 42.3006 -83.8708 297° West 262 302 12,000 1,140 Climbing Cleveland Center
01:12PM 42.3181 -83.9139 299° West 268 308 12,100 900 Climbing Cleveland Center
01:13PM 42.3394 -83.9656 299° West 294 338 12,900 540 Climbing Cleveland Center
01:14PM 42.4261 -83.9956 346° North 334 384 13,000 300 Climbing Cleveland Center
01:15PM 42.4592 -84.0817 298° West 301 346 13,600 900 Climbing Cleveland Center
01:16PM 42.4333 -84.1758 250° West 227 261 14,800 1,440 Climbing Cleveland Center
01:17PM 42.4258 -84.2769 264° West 247 284 16,500 1,740 Climbing Cleveland Center
01:18PM 42.4306 -84.3869 273° West 273 314 18,300 1,740 Climbing Cleveland Center
01:19PM 42.4333 -84.4939 272° West 285 328 20,000 1,620 Climbing Cleveland Center
01:20PM 42.4356 -84.6067 272° West 295 339 21,600 1,500 Climbing Cleveland Center
01:20PM 42.4408 -84.6672 277° West 303 349 22,400 1,500 Climbing Chicago Center
01:21PM 42.4428 -84.7756 271° West 295 339 24,100 1,740 Climbing Chicago Center
01:22PM 42.4436 -84.8722 271° West 270 311 26,100 1,860 Climbing Chicago Center
01:23PM 42.4469 -84.9606 273° West 244 281 28,000 1,800 Climbing Chicago Center
01:24PM 42.4486 -85.0575 271° West 221 254 29,900 1,560 Climbing Chicago Center
01:25PM 42.4500 -85.1381 271° West 216 249 31,300 1,320 Climbing Chicago Center
01:26PM 42.4531 -85.2222 273° West 220 253 32,700 1,320 Climbing Chicago Center
01:27PM 42.4533 -85.3106 270° West 230 265 34,100 1,260 Climbing Chicago Center
01:28PM 42.4558 -85.3958 272° West 229 264 35,400 900 Climbing Chicago Center
01:29PM 42.4569 -85.4839 271° West 231 266 36,000 240 Climbing Chicago Center
01:30PM 42.4589 -85.5825 272° West 249 287 36,000  Level Chicago Center
01:31PM 42.4608 -85.7111 271° West 278 320 36,000  Level Chicago Center
01:33PM 42.4628 -85.8211 271° West 289 333 36,000  Level Chicago Center
01:34PM 42.4636 -85.9311 271° West 292 336 36,000  Level Chicago Center
01:35PM 42.4653 -86.0411 271° West 292 336 36,000 300 Level Chicago Center
01:36PM 42.4711 -86.1492 274° West 290 334 36,700 660 Climbing Chicago Center
01:37PM 42.4906 -86.2492 285° West 274 315 37,400 720 Climbing Chicago Center
01:38PM 42.5069 -86.3483 283° West 271 312 38,200 780 Climbing Chicago Center
01:39PM 42.5267 -86.4622 283° West 261 300 39,100 540 Climbing Chicago Center
01:40PM 42.5422 -86.5611 282° West 262 302 39,400 300 Climbing Chicago Center
01:41PM 42.5592 -86.6575 283° West 266 306 39,800 240 Climbing Chicago Center
01:42PM 42.5750 -86.7575 282° West 271 312 40,000 60 Climbing Chicago Center
01:43PM 42.5917 -86.8586 283° West 273 314 40,000  Level Chicago Center
01:44PM 42.6083 -86.9617 282° West 278 320 40,000  Level Chicago Center
01:45PM 42.6283 -87.0858 282° West 280 322 40,000  Level Chicago Center
01:46PM 42.6450 -87.1903 282° West 283 326 40,000  Level Chicago Center
01:47PM 42.6625 -87.2944 283° West 279 321 40,100 120 Climbing Chicago Center
01:48PM 42.6769 -87.3944 281° West 277 319 40,300 180 Climbing Chicago Center
01:49PM 42.6939 -87.4928 283° West 270 311 40,500 180 Climbing Chicago Center
01:50PM 42.7117 -87.6064 282° West 266 306 40,700 240 Climbing Chicago Center
01:51PM 42.7267 -87.7047 282° West 265 305 41,000 120 Climbing Chicago Center
01:52PM 42.7419 -87.8011 282° West 261 300 41,000  Level Chicago Center
01:53PM 42.7569 -87.8994 282° West 264 304 41,000  Level Chicago Center
01:54PM 42.7725 -87.9997 282° West 268 308 41,000  Level Chicago Center
01:55PM 42.7883 -88.1031 282° West 275 316 41,000  Level Chicago Center
01:56PM 42.8061 -88.2225 282° West 275 316 41,000  Level Chicago Center
01:57PM 42.8214 -88.3258 281° West 277 319 41,000  Level Chicago Center
01:58PM 42.8367 -88.4264 282° West 272 313 41,000  Level Chicago Center
01:59PM 42.8525 -88.5283 282° West 273 314 41,000  Level Chicago Center
02:00PM 42.8661 -88.6261 281° West 264 304 41,000  Level Chicago Center
02:01PM 42.8819 -88.7267 282° West 270 311 41,000  Level Chicago Center
02:03PM 42.8975 -88.8419 280° West 265 305 41,000  Level Chicago Center
02:04PM 42.9122 -88.9400 282° West 264 304 41,000  Level Chicago Center
02:05PM 42.9264 -89.0383 281° West 265 305 41,000  Level Chicago Center
02:06PM 42.9400 -89.1367 281° West 264 304 41,000  Level Chicago Center
02:07PM 42.9553 -89.2347 282° West 264 304 41,000  Level Chicago Center
02:08PM 42.9689 -89.3317 281° West 260 299 41,000  Level Chicago Center
02:09PM 42.9839 -89.4464 280° West 261 300 41,000  Level Chicago Center
02:10PM 42.9972 -89.5444 281° West 263 303 41,000  Level Chicago Center
02:11PM 43.0117 -89.6436 281° West 265 305 41,000  Level Chicago Center
02:12PM 43.0250 -89.7425 280° West 264 304 41,000  Level Chicago Center
02:13PM 43.0381 -89.8433 280° West 268 308 41,000  Level Chicago Center
02:14PM 43.0522 -89.9483 280° West 268 308 41,000  Level Chicago Center
02:15PM 43.0669 -90.0503 281° West 275 316 41,000  Level Chicago Center
02:16PM 43.0803 -90.1511 280° West 274 315 41,000  Level Chicago Center
02:17PM 43.0919 -90.2525 279° West 274 315 41,000  Level Chicago Center
02:18PM 43.1108 -90.3758 282° West 279 321 41,000  Level Chicago Center
02:19PM 43.1244 -90.4778 280° West 276 318 41,000  Level Chicago Center
02:20PM 43.1358 -90.5792 279° West 276 318 41,000  Level Chicago Center
02:21PM 43.1500 -90.6836 281° West 282 325 41,000  Level Chicago Center
02:21PM 43.1544 -90.7250 278° West 280 322 41,000  Level Minneapolis Center
02:22PM 43.1683 -90.8292 280° West 281 323 41,000  Level Minneapolis Center
02:24PM 43.1844 -90.9558 280° West 284 327 41,000  Level Minneapolis Center
02:25PM 43.1978 -91.0622 280° West 286 329 41,000  Level Minneapolis Center
02:26PM 43.2111 -91.1672 280° West 284 327 41,000  Level Minneapolis Center
02:27PM 43.2242 -91.2731 280° West 284 327 41,000  Level Minneapolis Center
02:28PM 43.2375 -91.3800 280° West 287 330 41,000  Level Minneapolis Center
02:29PM 43.2522 -91.5067 279° West 285 328 41,000  Level Minneapolis Center
02:30PM 43.2650 -91.6139 279° West 287 330 41,000  Level Minneapolis Center
02:31PM 43.2783 -91.7217 280° West 288 331 41,000  Level Minneapolis Center
02:32PM 43.2897 -91.8275 278° West 287 330 41,000  Level Minneapolis Center
02:33PM 43.3025 -91.9342 279° West 287 330 41,000  Level Minneapolis Center
02:34PM 43.3181 -92.0617 280° West 286 329 41,000  Level Minneapolis Center
02:35PM 43.3300 -92.1697 279° West 289 333 41,000  Level Minneapolis Center
02:36PM 43.3419 -92.2772 279° West 288 331 41,000  Level Minneapolis Center
02:37PM 43.3544 -92.3853 279° West 289 333 41,000  Level Minneapolis Center
02:38PM 43.3675 -92.4961 279° West 291 335 41,000  Level Minneapolis Center
02:39PM 43.3814 -92.6247 278° West 292 336 41,000  Level Minneapolis Center
02:40PM 43.3936 -92.7342 279° West 292 336 41,000  Level Minneapolis Center
02:41PM 43.4050 -92.8428 278° West 291 335 41,000  Level Minneapolis Center
02:42PM 43.4172 -92.9500 279° West 288 331 41,000  Level Minneapolis Center
02:43PM 43.4283 -93.0592 278° West 291 335 41,000  Level Minneapolis Center
02:44PM 43.4419 -93.1881 278° West 287 330 41,000  Level Minneapolis Center
02:45PM 43.4542 -93.2961 279° West 288 331 41,000  Level Minneapolis Center
02:46PM 43.4650 -93.4053 278° West 291 335 41,000  Level Minneapolis Center
02:47PM 43.4769 -93.5136 279° West 289 333 41,000  Level Minneapolis Center
02:48PM 43.4875 -93.6247 277° West 293 337 41,000  Level Minneapolis Center
02:49PM 43.5017 -93.7547 279° West 290 334 41,000  Level Minneapolis Center
02:50PM 43.5119 -93.8644 277° West 291 335 41,000  Level Minneapolis Center
02:51PM 43.5219 -93.9758 277° West 293 337 41,000  Level Minneapolis Center
02:52PM 43.5336 -94.0856 278° West 292 336 41,000  Level Minneapolis Center
02:53PM 43.5433 -94.1903 277° West 292 336 41,000  Level Minneapolis Center
02:54PM 43.5578 -94.3267 278° West 292 336 41,000  Level Minneapolis Center
02:56PM 43.5675 -94.4378 277° West 292 336 41,000  Level Minneapolis Center
02:57PM 43.5775 -94.5500 277° West 295 339 41,000  Level Minneapolis Center
02:58PM 43.5886 -94.6614 278° West 295 339 41,000  Level Minneapolis Center
02:59PM 43.5983 -94.7728 277° West 294 338 41,000  Level Minneapolis Center
03:00PM 43.6086 -94.8850 277° West 295 339 41,000  Level Minneapolis Center
03:01PM 43.6181 -94.9961 277° West 293 337 41,000  Level Minneapolis Center
03:02PM 43.6303 -95.1311 277° West 295 339 41,000  Level Minneapolis Center
03:03PM 43.6397 -95.2431 277° West 296 341 41,000  Level Minneapolis Center
03:04PM 43.6492 -95.3553 277° West 294 338 41,000  Level Minneapolis Center
03:05PM 43.6586 -95.4678 277° West 296 341 41,000  Level Minneapolis Center
03:06PM 43.6686 -95.5794 277° West 294 338 41,000  Level Minneapolis Center
03:07PM 43.6769 -95.6936 276° West 299 344 41,000  Level Minneapolis Center
03:08PM 43.6867 -95.8064 277° West 297 342 41,000  Level Minneapolis Center
03:09PM 43.6967 -95.9208 277° West 300 345 41,000  Level Minneapolis Center
03:10PM 43.7086 -96.0814 276° West 299 344 41,000  Level Minneapolis Center
03:11PM 43.7181 -96.1983 276° West 305 351 41,000  Level Minneapolis Center
03:12PM 43.7272 -96.3156 276° West 305 351 41,000  Level Minneapolis Center
03:13PM 43.7358 -96.4325 276° West 305 351 41,000  Level Minneapolis Center
03:14PM 43.7467 -96.5742 276° West 308 354 41,000  Level Minneapolis Center
03:15PM 43.7553 -96.6933 276° West 310 357 41,000  Level Minneapolis Center
03:16PM 43.7642 -96.8117 276° West 309 356 41,000  Level Minneapolis Center
03:18PM 43.7731 -96.9319 276° West 313 360 41,000  Level Minneapolis Center
03:19PM 43.7828 -97.0739 275° West 311 358 41,000  Level Minneapolis Center
03:20PM 43.7906 -97.1956 275° West 315 362 41,000  Level Minneapolis Center
03:21PM 43.7997 -97.3142 276° West 312 359 41,000  Level Minneapolis Center
03:22PM 43.8069 -97.4347 275° West 315 362 41,000  Level Minneapolis Center
03:23PM 43.8156 -97.5544 276° West 314 361 41,000  Level Minneapolis Center
03:24PM 43.8228 -97.6739 275° West 313 360 41,000  Level Minneapolis Center
03:25PM 43.8314 -97.7942 276° West 315 362 41,000  Level Minneapolis Center
03:26PM 43.8389 -97.9144 275° West 313 360 41,000 -240 Level Minneapolis Center
03:27PM 43.8486 -98.0828 275° West 314 361 40,500 -720 Descending Minneapolis Center
03:28PM 43.8569 -98.2039 275° West 317 365 39,500 -960 Descending Minneapolis Center
03:29PM 43.8636 -98.3217 275° West 310 357 38,600 -780 Descending Minneapolis Center
03:30PM 43.8697 -98.4389 274° West 307 353 37,900 -780 Descending Minneapolis Center
03:31PM 43.8781 -98.5622 275° West 318 366 37,100 -780 Descending Minneapolis Center
03:32PM 43.8825 -98.6650 273° West 330 380 36,400 -780 Descending Minneapolis Center
03:33PM 43.8925 -98.8300 275° West 341 392 35,500 -840 Descending Minneapolis Center
03:34PM 43.9000 -98.9606 275° West 341 392 34,700 -720 Descending Minneapolis Center
03:35PM 43.9058 -99.0886 274° West 334 384 33,900 -900 Descending Minneapolis Center
03:36PM 43.9158 -99.2717 274° West 339 390 32,800 -900 Descending Minneapolis Center
03:37PM 43.9219 -99.4022 274° West 340 391 32,100 -660 Descending Minneapolis Center
03:38PM 43.9275 -99.5353 273° West 343 395 31,500 -600 Descending Minneapolis Center
03:40PM 43.9353 -99.6683 275° West 345 397 30,900 -660 Descending Minneapolis Center
03:41PM 43.9414 -99.8042 274° West 350 403 30,200 -660 Descending Minneapolis Center
03:42PM 43.9475 -99.9414 274° West 353 406 29,600 -540 Descending Minneapolis Center
03:43PM 43.9522 -100.0508 273° West 355 409 29,100 -720 Descending Minneapolis Center
03:44PM 43.9611 -100.2472 274° West 361 415 28,200 -720 Descending Minneapolis Center
03:45PM 43.9661 -100.3906 273° West 368 423 27,700 -420 Descending Minneapolis Center
03:46PM 43.9728 -100.5425 274° West 373 429 27,400 -360 Descending Minneapolis Center
03:47PM 43.9781 -100.6800 273° West 374 430 27,000 -240 Descending Minneapolis Center
03:48PM 43.9831 -100.8217 273° West 372 428 27,000  Level Minneapolis Center
03:49PM 43.9883 -100.9622 273° West 369 425 27,000  Level Minneapolis Center
03:50PM 43.9933 -101.1033 273° West 367 422 27,000  Level Minneapolis Center
03:51PM 43.9986 -101.2417 273° West 364 419 27,000  Level Minneapolis Center
03:52PM 44.0039 -101.4086 273° West 362 417 27,000  Level Minneapolis Center
03:52PM 44.0028 -101.4339 267° West 357 411 27,000 -840 Level Denver Center
03:53PM 44.0061 -101.5722 272° West 358 412 25,900 -1,380 Descending Denver Center
03:54PM 44.0100 -101.7381 272° West 357 411 24,200 -1,500 Descending Denver Center
03:55PM 44.0147 -101.8717 273° West 350 403 22,800 -1,320 Descending Denver Center
03:56PM 44.0206 -101.9156 280° West 346 398 22,400 -1,380 Descending Denver Center
03:56PM 44.0192 -102.0047 269° West 347 399 21,400 -1,380 Descending Denver Center
03:57PM 44.0250 -102.0650 278° West 342 394 20,900 -1,260 Descending Denver Center
03:57PM 44.0247 -102.1372 270° West 344 396 20,100 -1,620 Descending Denver Center
03:58PM 44.0289 -102.1994 275° West 339 390 19,300 -1,800 Descending Denver Center
03:58PM 44.0275 -102.2628 268° West 334 384 18,300 -1,800 Descending Denver Center
03:59PM 44.0317 -102.3139 276° West 315 362 17,500 -2,100 Descending Denver Center
03:59PM 44.0314 -102.3828 270° West 317 365 16,100 -2,700 Descending Denver Center
04:00PM 44.0336 -102.4375 273° West 306 352 14,800 -2,640 Descending Denver Center
04:01PM 44.0331 -102.5194 269° West 302 348 13,400 -2,040 Descending Denver Center
04:01PM 44.0325 -102.5558 269° West 294 338 12,800 -1,680 Descending Denver Center
04:02PM 44.0308 -102.6311 268° West 293 337 11,700 -1,680 Descending Denver Center
04:02PM 44.0311 -102.6594 271° West 285 328 11,100 -2,220 Descending Denver Center
04:03PM 44.0369 -102.7367 276° West 279 321 9,500 -2,220 Descending Denver Center
04:03PM 44.0411 -102.7686 280° West 276 318 8,900 -900 Descending Denver Center
04:04PM 44.0481 -102.8369 278° West 274 315 8,600 -1,200 Descending Denver Center
04:04PM 44.0525 -102.8597 285° West 253 291 7,700 -1,680 Descending Denver Center
04:05PM 44.0656 -102.9475 282° West 221 254 6,500 -1,440 Descending Denver Center
04:06PM 44.0747 -103.0097 282° West 178 205 4,800 -1,260 Descending Denver Center
04:07PM 44.0742 -103.0631 269° West 131 151 4,000 -840 Descending Denver Center
04:09PM 44.0453 -103.0574 180° South  Level Estimated